Time;durP1;ratioP1;P1;durP2;ratioP2;P2;SDS_P1;SDS_P2;PMS_P1;PMS_P2;Temp;Humidity;BMP_temperature;BMP_pressure;BME280_temperature;BME280_humidity;BME280_pressure;Samples;Min_cycle;Max_cycle;Signal;HPM_P1;HPM_P2
2023/01/15 00:01:22;;;;;;;1.00;0.90;;;;;;;;;;5093958;28;20546;-52
2023/01/15 00:03:49;;;;;;;0.70;0.70;;;;;;;;;;5094135;28;20859;-56
2023/01/15 00:06:17;;;;;;;0.80;0.80;;;;;;;;;;5094123;28;20446;-54
2023/01/15 00:08:45;;;;;;;1.00;0.87;;;;;;;;;;5093959;28;20988;-56
2023/01/15 00:11:12;;;;;;;1.37;0.80;;;;;;;;;;5093871;28;20447;-52
2023/01/15 00:13:39;;;;;;;1.00;0.70;;;;;;;;;;5093646;28;20453;-55
2023/01/15 00:16:07;;;;;;;1.10;0.90;;;;;;;;;;5093661;28;20447;-51
2023/01/15 00:18:34;;;;;;;1.43;0.80;;;;;;;;;;5093877;28;20451;-53
2023/01/15 00:21:02;;;;;;;1.10;0.80;;;;;;;;;;5093783;28;20451;-52
2023/01/15 00:29:00;;;;;;;0.80;0.73;;;;;;;;;;5093540;28;20479;-53
2023/01/15 00:31:27;;;;;;;0.80;0.80;;;;;;;;;;5093614;28;20474;-52
2023/01/15 00:33:55;;;;;;;0.80;0.70;;;;;;;;;;5093539;28;20446;-52
2023/01/15 00:36:21;;;;;;;0.97;0.80;;;;;;;;;;5093441;28;20449;-53
2023/01/15 00:38:48;;;;;;;1.53;0.80;;;;;;;;;;5093271;28;20542;-56
2023/01/15 00:41:17;;;;;;;3.53;0.60;;;;;;;;;;5093528;28;20771;-56
2023/01/15 00:43:44;;;;;;;0.80;0.70;;;;;;;;;;5093251;28;20537;-57
2023/01/15 00:46:11;;;;;;;0.70;0.70;;;;;;;;;;5093371;28;20449;-56
2023/01/15 00:48:38;;;;;;;1.07;0.67;;;;;;;;;;5093161;28;20489;-56
2023/01/15 00:51:05;;;;;;;1.03;0.93;;;;;;;;;;5093200;28;20451;-56
2023/01/15 00:53:32;;;;;;;0.80;0.80;;;;;;;;;;5093002;28;20455;-56
2023/01/15 00:55:59;;;;;;;2.90;0.90;;;;;;;;;;5093265;28;20534;-55
2023/01/15 00:58:27;;;;;;;0.60;0.60;;;;;;;;;;5093249;28;20483;-56
2023/01/15 01:00:55;;;;;;;1.00;0.70;;;;;;;;;;5093073;28;20451;-56
2023/01/15 01:03:22;;;;;;;0.90;0.80;;;;;;;;;;5093041;28;20902;-55
2023/01/15 01:05:49;;;;;;;0.70;0.70;;;;;;;;;;5093136;28;20504;-56
2023/01/15 01:08:17;;;;;;;0.80;0.80;;;;;;;;;;5092963;28;20837;-56
2023/01/15 01:10:44;;;;;;;1.13;0.60;;;;;;;;;;5093222;28;20884;-56
2023/01/15 01:13:11;;;;;;;0.80;0.67;;;;;;;;;;5093186;28;20443;-55
2023/01/15 01:15:39;;;;;;;1.00;0.73;;;;;;;;;;5093142;28;20780;-56
2023/01/15 01:18:07;;;;;;;2.90;0.97;;;;;;;;;;5093052;28;20453;-56
2023/01/15 01:20:34;;;;;;;0.70;0.70;;;;;;;;;;5092919;28;20550;-56
2023/01/15 01:23:01;;;;;;;0.80;0.67;;;;;;;;;;5093131;28;20453;-57
2023/01/15 01:25:28;;;;;;;0.70;0.70;;;;;;;;;;5095825;28;21001;-54
2023/01/15 01:27:55;;;;;;;0.80;0.67;;;;;;;;;;5097175;28;20482;-57
2023/01/15 01:30:22;;;;;;;1.80;0.70;;;;;;;;;;5097142;28;20453;-57
2023/01/15 01:32:50;;;;;;;1.07;0.70;;;;;;;;;;5097095;28;20802;-54
2023/01/15 01:35:17;;;;;;;0.70;0.67;;;;;;;;;;5096896;28;20451;-54
2023/01/15 01:37:44;;;;;;;0.90;0.70;;;;;;;;;;5097065;28;20453;-55
2023/01/15 01:40:12;;;;;;;0.70;0.60;;;;;;;;;;5097027;28;20447;-52
2023/01/15 01:42:39;;;;;;;1.43;0.67;;;;;;;;;;5096912;28;20538;-54
2023/01/15 01:45:13;;;;;;;1.70;0.70;;;;;;;;;;5096686;28;20515;-53
2023/01/15 01:47:40;;;;;;;1.20;0.70;;;;;;;;;;5096596;28;20509;-56
2023/01/15 01:50:10;;;;;;;0.70;0.60;;;;;;;;;;5096911;28;20823;-55
2023/01/15 01:52:39;;;;;;;2.23;0.83;;;;;;;;;;5096865;28;20806;-54
2023/01/15 01:55:08;;;;;;;1.10;0.70;;;;;;;;;;5096714;28;20450;-54
2023/01/15 01:57:35;;;;;;;1.77;0.70;;;;;;;;;;5096576;28;20451;-55
2023/01/15 02:00:05;;;;;;;0.80;0.77;;;;;;;;;;5096511;28;20542;-54
2023/01/15 02:02:32;;;;;;;0.70;0.70;;;;;;;;;;5096756;28;20870;-54
2023/01/15 02:04:59;;;;;;;0.80;0.80;;;;;;;;;;5096614;28;20451;-55
2023/01/15 02:07:31;;;;;;;0.90;0.80;;;;;;;;;;5096423;28;20478;-55
2023/01/15 02:09:59;;;;;;;0.60;0.50;;;;;;;;;;5096517;28;20537;-53
2023/01/15 02:12:28;;;;;;;1.87;0.77;;;;;;;;;;5096325;28;20447;-56
2023/01/15 02:15:01;;;;;;;0.70;0.63;;;;;;;;;;5096442;28;20450;-55
2023/01/15 02:17:34;;;;;;;0.90;0.70;;;;;;;;;;5096438;28;20462;-56
2023/01/15 02:20:11;;;;;;;0.70;0.60;;;;;;;;;;5096311;28;20450;-56
2023/01/15 02:22:46;;;;;;;1.07;0.67;;;;;;;;;;5096323;28;20457;-56
2023/01/15 02:25:15;;;;;;;1.37;0.87;;;;;;;;;;5096101;28;20452;-56
2023/01/15 02:27:44;;;;;;;1.03;0.60;;;;;;;;;;5096280;28;20474;-56
2023/01/15 02:30:14;;;;;;;0.90;0.70;;;;;;;;;;5095911;28;20964;-55
2023/01/15 02:32:44;;;;;;;0.70;0.53;;;;;;;;;;5095920;28;20451;-56
2023/01/15 02:35:16;;;;;;;0.60;0.50;;;;;;;;;;5095426;28;20447;-52
2023/01/15 02:37:47;;;;;;;0.70;0.57;;;;;;;;;;5095096;28;20469;-56
2023/01/15 02:40:15;;;;;;;0.60;0.50;;;;;;;;;;5096007;28;20543;-56
2023/01/15 02:42:45;;;;;;;1.23;0.90;;;;;;;;;;5095679;28;20938;-57
2023/01/15 02:45:13;;;;;;;0.90;0.70;;;;;;;;;;5095599;28;20471;-56
2023/01/15 02:47:41;;;;;;;0.60;0.60;;;;;;;;;;5095611;28;20837;-57
2023/01/15 02:50:11;;;;;;;0.93;0.57;;;;;;;;;;5095580;28;20450;-54
2023/01/15 02:52:40;;;;;;;0.60;0.60;;;;;;;;;;5095696;28;20496;-56
2023/01/15 02:55:09;;;;;;;0.60;0.60;;;;;;;;;;5095605;28;20446;-52
2023/01/15 02:57:38;;;;;;;0.93;0.80;;;;;;;;;;5095455;28;20450;-57
2023/01/15 03:00:10;;;;;;;0.60;0.50;;;;;;;;;;5095374;28;21007;-56
2023/01/15 03:02:40;;;;;;;1.53;0.50;;;;;;;;;;5095336;28;20530;-50
2023/01/15 03:05:09;;;;;;;0.60;0.50;;;;;;;;;;5095463;28;20457;-50
2023/01/15 03:07:38;;;;;;;0.60;0.60;;;;;;;;;;5095289;28;20482;-53
2023/01/15 03:10:06;;;;;;;1.47;0.70;;;;;;;;;;5095113;28;20957;-55
2023/01/15 03:13:01;;;;;;;0.93;0.70;;;;;;;;;;5095188;28;20447;-52
2023/01/15 03:18:10;;;;;;;0.70;0.60;;;;;;;;;;5094765;28;20458;-53
2023/01/15 03:20:38;;;;;;;1.27;0.60;;;;;;;;;;5095031;28;20454;-53
2023/01/15 03:23:08;;;;;;;0.60;0.50;;;;;;;;;;5094881;28;20447;-51
2023/01/15 03:25:37;;;;;;;0.60;0.60;;;;;;;;;;5094681;28;20455;-54
2023/01/15 03:28:05;;;;;;;0.70;0.60;;;;;;;;;;5094479;28;21029;-53
2023/01/15 03:30:34;;;;;;;1.83;0.60;;;;;;;;;;5094719;28;20574;-54
2023/01/15 03:33:01;;;;;;;0.60;0.50;;;;;;;;;;5094694;28;20530;-52
2023/01/15 03:35:42;;;;;;;1.17;0.60;;;;;;;;;;5094537;28;20453;-54
2023/01/15 03:38:09;;;;;;;0.80;0.70;;;;;;;;;;5094420;28;20903;-53
2023/01/15 03:40:38;;;;;;;0.60;0.57;;;;;;;;;;5094610;28;20454;-55
2023/01/15 03:45:50;;;;;;;0.70;0.60;;;;;;;;;;5093969;28;20467;-52
2023/01/15 03:48:20;;;;;;;0.80;0.67;;;;;;;;;;5093788;28;20841;-52
2023/01/15 03:50:50;;;;;;;0.70;0.70;;;;;;;;;;5094185;28;20447;-51
2023/01/15 03:53:19;;;;;;;1.30;0.80;;;;;;;;;;5094291;28;20806;-52
2023/01/15 03:55:48;;;;;;;1.00;0.70;;;;;;;;;;5094187;28;20451;-55
2023/01/15 03:58:16;;;;;;;1.33;0.80;;;;;;;;;;5094120;28;20534;-51
2023/01/15 04:00:45;;;;;;;0.70;0.60;;;;;;;;;;5094012;28;20443;-52
2023/01/15 04:03:14;;;;;;;0.80;0.70;;;;;;;;;;5094317;28;20490;-50
2023/01/15 04:05:42;;;;;;;0.67;0.60;;;;;;;;;;5094070;28;20438;-52
2023/01/15 04:08:09;;;;;;;3.83;0.70;;;;;;;;;;5093946;28;20502;-53
2023/01/15 04:10:36;;;;;;;0.70;0.70;;;;;;;;;;5093953;28;20541;-54
2023/01/15 04:13:03;;;;;;;0.70;0.70;;;;;;;;;;5093815;28;20895;-55
2023/01/15 04:15:30;;;;;;;0.70;0.70;;;;;;;;;;5093711;28;20451;-53
2023/01/15 04:17:57;;;;;;;1.83;0.73;;;;;;;;;;5093891;28;20475;-54
2023/01/15 04:20:25;;;;;;;0.70;0.60;;;;;;;;;;5093619;28;20968;-56
2023/01/15 04:22:52;;;;;;;1.00;0.70;;;;;;;;;;5093816;28;20497;-50
2023/01/15 04:25:19;;;;;;;1.53;0.77;;;;;;;;;;5093692;28;20449;-53
2023/01/15 04:27:46;;;;;;;0.70;0.70;;;;;;;;;;5093505;28;20455;-51
2023/01/15 04:30:16;;;;;;;0.60;0.50;;;;;;;;;;5093429;28;20450;-54
2023/01/15 04:32:43;;;;;;;0.60;0.60;;;;;;;;;;5093602;28;20453;-55
2023/01/15 04:35:10;;;;;;;0.80;0.60;;;;;;;;;;5093558;28;20451;-53
2023/01/15 04:37:38;;;;;;;1.10;0.60;;;;;;;;;;5093526;28;20458;-51
2023/01/15 04:40:05;;;;;;;1.27;0.70;;;;;;;;;;5093310;28;20876;-53
2023/01/15 04:45:17;;;;;;;0.60;0.60;;;;;;;;;;5093108;28;20489;-53
2023/01/15 04:47:44;;;;;;;1.50;0.60;;;;;;;;;;5093414;28;20443;-50
2023/01/15 04:50:11;;;;;;;0.83;0.60;;;;;;;;;;5093186;28;20576;-56
2023/01/15 04:52:40;;;;;;;1.20;0.50;;;;;;;;;;5093242;28;20450;-55
2023/01/15 04:55:07;;;;;;;0.77;0.70;;;;;;;;;;5093095;28;20811;-53
2023/01/15 04:57:35;;;;;;;0.70;0.50;;;;;;;;;;5093319;28;20447;-54
2023/01/15 05:00:02;;;;;;;0.97;0.60;;;;;;;;;;5092247;28;20949;-53
2023/01/15 05:02:29;;;;;;;0.80;0.60;;;;;;;;;;5093172;28;20546;-49
2023/01/15 05:04:56;;;;;;;1.10;0.50;;;;;;;;;;5093065;28;20537;-54
2023/01/15 05:07:23;;;;;;;1.17;0.70;;;;;;;;;;5092963;28;20453;-54
2023/01/15 05:09:53;;;;;;;0.80;0.63;;;;;;;;;;5092784;28;20482;-55
2023/01/15 05:12:20;;;;;;;1.00;1.00;;;;;;;;;;5093145;28;20501;-49
2023/01/15 05:14:47;;;;;;;2.97;0.60;;;;;;;;;;5092985;28;20520;-54
2023/01/15 05:17:14;;;;;;;0.77;0.60;;;;;;;;;;5093030;28;20457;-52
2023/01/15 05:19:41;;;;;;;0.83;0.60;;;;;;;;;;5092903;28;20542;-51
2023/01/15 05:22:08;;;;;;;0.60;0.50;;;;;;;;;;5092887;28;20458;-50
2023/01/15 05:24:35;;;;;;;0.60;0.50;;;;;;;;;;5092995;28;20438;-54
2023/01/15 05:27:04;;;;;;;1.30;0.60;;;;;;;;;;5092978;28;20449;-54
2023/01/15 05:29:31;;;;;;;0.93;0.67;;;;;;;;;;5092784;28;20484;-51
2023/01/15 05:31:58;;;;;;;1.67;0.60;;;;;;;;;;5092861;28;20457;-56
2023/01/15 05:34:25;;;;;;;1.33;0.80;;;;;;;;;;5092676;28;20463;-53
2023/01/15 05:36:52;;;;;;;0.70;0.60;;;;;;;;;;5092687;28;20446;-49
2023/01/15 05:39:19;;;;;;;0.60;0.50;;;;;;;;;;5092862;28;20541;-51
2023/01/15 05:41:49;;;;;;;0.60;0.50;;;;;;;;;;5092610;28;20941;-53
2023/01/15 05:44:18;;;;;;;0.70;0.60;;;;;;;;;;5092603;28;20530;-51
2023/01/15 05:46:45;;;;;;;1.00;0.60;;;;;;;;;;5092557;28;20447;-56
2023/01/15 05:49:13;;;;;;;1.40;0.50;;;;;;;;;;5092507;28;20479;-54
2023/01/15 05:51:41;;;;;;;1.07;0.70;;;;;;;;;;5092467;28;20446;-53
2023/01/15 05:54:09;;;;;;;1.57;0.60;;;;;;;;;;5092662;28;20542;-51
2023/01/15 05:56:36;;;;;;;1.90;0.60;;;;;;;;;;5092623;28;20457;-51
2023/01/15 05:59:05;;;;;;;2.10;0.60;;;;;;;;;;5092549;28;20432;-55
2023/01/15 06:01:33;;;;;;;0.70;0.70;;;;;;;;;;5092495;28;20454;-53
2023/01/15 06:04:01;;;;;;;1.00;0.70;;;;;;;;;;5092368;28;20446;-55
2023/01/15 06:06:28;;;;;;;0.90;0.60;;;;;;;;;;5092641;28;21002;-56
2023/01/15 06:08:55;;;;;;;0.70;0.50;;;;;;;;;;5092544;28;20565;-53
2023/01/15 06:11:22;;;;;;;1.33;0.50;;;;;;;;;;5095101;28;20451;-54
2023/01/15 06:13:49;;;;;;;1.33;0.67;;;;;;;;;;5096322;28;20451;-56
2023/01/15 06:16:17;;;;;;;1.37;0.43;;;;;;;;;;5096143;28;20482;-56
2023/01/15 06:18:45;;;;;;;0.70;0.70;;;;;;;;;;5096427;28;20453;-52
2023/01/15 06:21:14;;;;;;;1.70;0.80;;;;;;;;;;5096301;28;20810;-56
2023/01/15 06:23:41;;;;;;;1.00;0.60;;;;;;;;;;5096243;28;20858;-53
2023/01/15 06:26:09;;;;;;;0.63;0.57;;;;;;;;;;5096070;28;20446;-50
2023/01/15 06:28:36;;;;;;;1.07;0.60;;;;;;;;;;5095897;28;20447;-51
2023/01/15 06:31:05;;;;;;;0.60;0.60;;;;;;;;;;5095880;28;20483;-56
2023/01/15 06:33:32;;;;;;;1.00;0.60;;;;;;;;;;5096131;28;20541;-56
2023/01/15 06:36:02;;;;;;;1.10;0.60;;;;;;;;;;5095992;28;20810;-57
2023/01/15 06:38:29;;;;;;;0.73;0.57;;;;;;;;;;5095901;28;20465;-55
2023/01/15 06:40:58;;;;;;;0.50;0.50;;;;;;;;;;5095695;28;21020;-52
2023/01/15 06:48:55;;;;;;;0.60;0.60;;;;;;;;;;5095599;28;20520;-51
2023/01/15 06:51:23;;;;;;;0.90;0.63;;;;;;;;;;5095703;28;20447;-52
2023/01/15 06:53:50;;;;;;;2.50;0.60;;;;;;;;;;5095457;28;20447;-55
2023/01/15 06:56:17;;;;;;;0.80;0.50;;;;;;;;;;5095774;28;20443;-49
2023/01/15 06:58:44;;;;;;;0.70;0.57;;;;;;;;;;5095598;28;20538;-57
2023/01/15 07:01:12;;;;;;;0.80;0.50;;;;;;;;;;5095545;28;20450;-57
2023/01/15 07:03:39;;;;;;;1.20;0.67;;;;;;;;;;5095386;28;20538;-52
2023/01/15 07:06:07;;;;;;;0.90;0.53;;;;;;;;;;5095283;28;20474;-53
2023/01/15 07:08:35;;;;;;;1.17;0.90;;;;;;;;;;5095064;28;20443;-51
2023/01/15 07:11:03;;;;;;;1.13;0.70;;;;;;;;;;5095352;28;20447;-51
2023/01/15 07:13:30;;;;;;;3.20;0.53;;;;;;;;;;5095242;28;20454;-52
2023/01/15 07:15:58;;;;;;;1.40;0.90;;;;;;;;;;5095156;28;20451;-56
2023/01/15 07:18:25;;;;;;;1.90;0.80;;;;;;;;;;5095102;28;20885;-56
2023/01/15 07:20:54;;;;;;;0.70;0.70;;;;;;;;;;5094956;28;20454;-49
2023/01/15 07:23:22;;;;;;;1.43;0.63;;;;;;;;;;5094398;28;20783;-54
2023/01/15 07:25:51;;;;;;;1.30;1.10;;;;;;;;;;5095028;28;20482;-52
2023/01/15 07:28:17;;;;;;;1.40;0.77;;;;;;;;;;5094928;28;20544;-54
2023/01/15 07:30:44;;;;;;;1.50;0.80;;;;;;;;;;5094690;28;20478;-52
2023/01/15 07:33:11;;;;;;;0.80;0.80;;;;;;;;;;5094821;28;20446;-49
2023/01/15 07:35:38;;;;;;;1.90;0.83;;;;;;;;;;5095495;28;20500;-54
2023/01/15 07:38:05;;;;;;;2.40;0.80;;;;;;;;;;5094801;28;20447;-53
2023/01/15 07:40:32;;;;;;;1.03;0.93;;;;;;;;;;5094698;28;20447;-50
2023/01/15 07:51:12;;;;;;;1.00;0.80;;;;;;;;;;5094521;28;20446;-56
2023/01/15 07:53:39;;;;;;;1.10;0.90;;;;;;;;;;5094379;28;20442;-53
2023/01/15 07:56:06;;;;;;;1.20;1.00;;;;;;;;;;5094337;28;20443;-56
2023/01/15 07:58:34;;;;;;;2.90;0.87;;;;;;;;;;5094226;28;20443;-52
2023/01/15 08:01:01;;;;;;;1.57;0.90;;;;;;;;;;5094313;28;20501;-52
2023/01/15 08:03:28;;;;;;;0.80;0.70;;;;;;;;;;5094210;28;20449;-55
2023/01/15 08:05:55;;;;;;;1.73;0.80;;;;;;;;;;5094210;28;20533;-53
2023/01/15 08:08:22;;;;;;;1.23;0.80;;;;;;;;;;5094203;28;20443;-56
2023/01/15 08:16:19;;;;;;;1.67;0.80;;;;;;;;;;5094029;28;20433;-53
2023/01/15 08:18:46;;;;;;;0.80;0.80;;;;;;;;;;5093945;28;20796;-56
2023/01/15 08:21:16;;;;;;;0.80;0.77;;;;;;;;;;5093769;28;20453;-54
2023/01/15 08:23:45;;;;;;;1.77;1.00;;;;;;;;;;5094072;28;21575;-51
2023/01/15 08:26:13;;;;;;;2.03;1.10;;;;;;;;;;5093772;28;20446;-55
2023/01/15 08:28:41;;;;;;;1.10;1.00;;;;;;;;;;5093745;28;20451;-53
2023/01/15 08:31:08;;;;;;;2.20;1.00;;;;;;;;;;5093574;28;20483;-53
2023/01/15 08:33:35;;;;;;;0.80;0.80;;;;;;;;;;5093529;28;20451;-52
2023/01/15 08:36:02;;;;;;;1.70;0.70;;;;;;;;;;5093597;28;20483;-53
2023/01/15 08:38:29;;;;;;;5.30;1.60;;;;;;;;;;5093716;28;20493;-52
2023/01/15 08:40:59;;;;;;;1.70;0.93;;;;;;;;;;5093561;28;20455;-55
2023/01/15 08:43:26;;;;;;;1.53;0.70;;;;;;;;;;5093512;28;20575;-52
2023/01/15 08:45:56;;;;;;;1.63;0.60;;;;;;;;;;5093185;28;20478;-51
2023/01/15 08:48:23;;;;;;;0.73;0.70;;;;;;;;;;5093345;28;20447;-51
2023/01/15 08:50:50;;;;;;;1.17;1.07;;;;;;;;;;5093136;28;20569;-51
2023/01/15 08:53:18;;;;;;;1.73;0.90;;;;;;;;;;5093345;28;20446;-49
2023/01/15 08:55:45;;;;;;;1.53;1.00;;;;;;;;;;5093170;28;20462;-56
2023/01/15 08:58:12;;;;;;;14.17;12.73;;;;;;;;;;5093303;28;20454;-50
2023/01/15 09:00:39;;;;;;;1.93;1.73;;;;;;;;;;5093194;28;20874;-52
2023/01/15 09:03:07;;;;;;;2.20;2.10;;;;;;;;;;5093145;28;20896;-51
2023/01/15 09:05:34;;;;;;;4.20;3.80;;;;;;;;;;5093259;28;20451;-53
2023/01/15 09:08:01;;;;;;;2.70;2.50;;;;;;;;;;5093244;28;20541;-50
2023/01/15 09:10:28;;;;;;;9.90;8.07;;;;;;;;;;5092988;28;20489;-53
2023/01/15 09:12:55;;;;;;;15.00;10.03;;;;;;;;;;5093007;28;21066;-50
2023/01/15 09:15:22;;;;;;;5.43;4.57;;;;;;;;;;5092870;28;20449;-53
2023/01/15 09:17:49;;;;;;;9.20;8.40;;;;;;;;;;5092841;28;20443;-52
2023/01/15 09:20:17;;;;;;;10.27;9.47;;;;;;;;;;5093075;28;20443;-55
2023/01/15 09:22:44;;;;;;;6.73;5.40;;;;;;;;;;5093085;28;20621;-55
2023/01/15 09:25:11;;;;;;;3.13;2.97;;;;;;;;;;5092951;28;20443;-56
2023/01/15 09:27:38;;;;;;;3.27;3.07;;;;;;;;;;5092702;28;20958;-57
2023/01/15 09:30:06;;;;;;;10.70;10.00;;;;;;;;;;5092556;28;20817;-55
2023/01/15 09:32:33;;;;;;;2.07;1.97;;;;;;;;;;5092890;28;20455;-56
2023/01/15 09:35:00;;;;;;;2.70;1.60;;;;;;;;;;5092872;28;20447;-56
2023/01/15 09:37:28;;;;;;;2.23;1.10;;;;;;;;;;5092771;28;20459;-56
2023/01/15 09:39:55;;;;;;;1.90;1.80;;;;;;;;;;5092701;28;20455;-56
2023/01/15 09:42:35;;;;;;;5.90;1.20;;;;;;;;;;5092595;28;20934;-56
2023/01/15 09:45:17;;;;;;;2.03;1.03;;;;;;;;;;5092960;28;20532;-55
2023/01/15 09:47:51;;;;;;;2.10;1.20;;;;;;;;;;5096802;28;20532;-57
2023/01/15 09:50:21;;;;;;;1.87;1.60;;;;;;;;;;5096481;28;20485;-56
2023/01/15 09:53:00;;;;;;;1.50;1.40;;;;;;;;;;5096614;28;20442;-56
2023/01/15 09:55:28;;;;;;;2.00;1.00;;;;;;;;;;5096679;28;20554;-55
2023/01/15 09:57:58;;;;;;;1.30;1.10;;;;;;;;;;5096555;28;20890;-56
2023/01/15 10:00:26;;;;;;;1.10;0.80;;;;;;;;;;5096407;28;20446;-56
2023/01/15 10:02:57;;;;;;;1.60;1.50;;;;;;;;;;5096415;28;20446;-57
2023/01/15 10:05:26;;;;;;;1.23;1.13;;;;;;;;;;5096271;28;20469;-57
2023/01/15 10:07:58;;;;;;;2.43;2.10;;;;;;;;;;5096275;28;20805;-57
2023/01/15 10:10:28;;;;;;;1.03;1.00;;;;;;;;;;5096325;28;20486;-55
2023/01/15 10:12:58;;;;;;;1.30;0.97;;;;;;;;;;5096263;28;20447;-56
2023/01/15 10:15:28;;;;;;;1.20;0.97;;;;;;;;;;5096116;28;20451;-56
2023/01/15 10:17:56;;;;;;;1.20;0.73;;;;;;;;;;5095878;28;20456;-57
2023/01/15 10:20:29;;;;;;;8.53;1.60;;;;;;;;;;5096054;28;20446;-56
2023/01/15 10:23:07;;;;;;;2.00;1.83;;;;;;;;;;5095921;28;21005;-56
2023/01/15 10:25:39;;;;;;;2.70;1.50;;;;;;;;;;5095998;28;20446;-55
2023/01/15 10:28:13;;;;;;;1.50;1.40;;;;;;;;;;5095919;28;20542;-55
2023/01/15 10:30:43;;;;;;;1.27;1.17;;;;;;;;;;5095716;28;20965;-56
2023/01/15 10:33:17;;;;;;;1.63;1.40;;;;;;;;;;5095856;28;20545;-56
2023/01/15 10:35:48;;;;;;;2.30;1.17;;;;;;;;;;5095832;28;20538;-56
2023/01/15 10:38:21;;;;;;;1.20;0.90;;;;;;;;;;5095748;28;20458;-56
2023/01/15 10:41:05;;;;;;;1.83;1.27;;;;;;;;;;5095580;28;20455;-55
2023/01/15 10:43:38;;;;;;;1.10;0.80;;;;;;;;;;5095598;28;21056;-56
2023/01/15 10:46:11;;;;;;;1.30;1.20;;;;;;;;;;5095594;28;20537;-55
2023/01/15 10:48:39;;;;;;;1.87;1.03;;;;;;;;;;5095428;28;20536;-56
2023/01/15 10:51:13;;;;;;;1.57;1.47;;;;;;;;;;5095212;28;20481;-56
2023/01/15 10:53:45;;;;;;;1.50;1.40;;;;;;;;;;5095328;28;20912;-56
2023/01/15 10:56:14;;;;;;;0.80;0.80;;;;;;;;;;5095028;28;20461;-56
2023/01/15 10:58:44;;;;;;;0.90;0.90;;;;;;;;;;5094550;28;20447;-51
2023/01/15 11:01:13;;;;;;;0.80;0.80;;;;;;;;;;5095174;28;20450;-56
2023/01/15 11:03:40;;;;;;;1.83;1.67;;;;;;;;;;5095003;28;20451;-56
2023/01/15 11:06:12;;;;;;;2.40;2.20;;;;;;;;;;5095005;28;20891;-57
2023/01/15 11:08:41;;;;;;;1.47;1.00;;;;;;;;;;5094934;28;21017;-56
2023/01/15 11:11:17;;;;;;;1.03;0.93;;;;;;;;;;5094962;28;20486;-52
2023/01/15 11:22:08;;;;;;;16.30;14.93;;;;;;;;;;5092143;28;20795;-56
2023/01/15 11:24:37;;;;;;;11.47;10.53;;;;;;;;;;5094755;28;20818;-51
2023/01/15 11:27:06;;;;;;;10.43;9.50;;;;;;;;;;5094844;28;20814;-56
2023/01/15 11:29:35;;;;;;;2.93;2.73;;;;;;;;;;5094763;28;20447;-55
2023/01/15 11:32:02;;;;;;;2.30;2.10;;;;;;;;;;5094697;28;20482;-57
2023/01/15 11:34:29;;;;;;;3.43;3.20;;;;;;;;;;5094626;28;20451;-53
2023/01/15 11:37:01;;;;;;;2.63;2.43;;;;;;;;;;5094605;28;20952;-56
2023/01/15 11:39:30;;;;;;;4.20;2.43;;;;;;;;;;5094318;28;20488;-55
2023/01/15 11:53:08;;;;;;;2.40;2.30;;;;;;;;;;5094231;28;20437;-53
2023/01/15 11:55:35;;;;;;;1.77;1.33;;;;;;;;;;5094192;28;20652;-56
2023/01/15 11:58:02;;;;;;;0.97;0.80;;;;;;;;;;5094057;28;20450;-55
2023/01/15 12:00:33;;;;;;;0.70;0.70;;;;;;;;;;5094242;28;20541;-51
2023/01/15 12:03:03;;;;;;;0.70;0.70;;;;;;;;;;5094267;28;20447;-55
2023/01/15 12:05:31;;;;;;;1.30;0.80;;;;;;;;;;5094031;28;20551;-55
2023/01/15 12:08:00;;;;;;;0.90;0.80;;;;;;;;;;5093637;28;20882;-54
2023/01/15 12:13:18;;;;;;;2.80;1.63;;;;;;;;;;5093663;28;20439;-54
2023/01/15 12:15:53;;;;;;;3.03;0.97;;;;;;;;;;5093830;28;20893;-54
2023/01/15 12:18:34;;;;;;;3.10;1.40;;;;;;;;;;5093979;28;20450;-56
2023/01/15 12:21:04;;;;;;;3.73;1.70;;;;;;;;;;5093666;28;20462;-51
2023/01/15 12:23:38;;;;;;;1.37;1.00;;;;;;;;;;5093952;28;20885;-54
2023/01/15 12:26:09;;;;;;;1.63;0.80;;;;;;;;;;5094089;28;20453;-50
2023/01/15 12:28:37;;;;;;;1.27;0.77;;;;;;;;;;5093871;28;20450;-53
2023/01/15 12:31:09;;;;;;;1.10;1.00;;;;;;;;;;5093603;28;20477;-56
2023/01/15 12:33:41;;;;;;;0.87;0.80;;;;;;;;;;5093593;28;20447;-56
2023/01/15 12:36:10;;;;;;;2.30;0.87;;;;;;;;;;5093535;28;20988;-57
2023/01/15 12:38:49;;;;;;;1.53;0.90;;;;;;;;;;5093619;28;20451;-56
2023/01/15 12:41:18;;;;;;;2.00;0.80;;;;;;;;;;5093503;28;20451;-56
2023/01/15 12:46:33;;;;;;;1.30;0.63;;;;;;;;;;5093451;28;20461;-57
2023/01/15 12:49:05;;;;;;;1.93;0.90;;;;;;;;;;5093516;28;20456;-56
2023/01/15 12:51:35;;;;;;;4.37;0.90;;;;;;;;;;5093306;28;20483;-52
2023/01/15 12:54:04;;;;;;;1.37;0.70;;;;;;;;;;5093344;28;20478;-56
2023/01/15 12:56:36;;;;;;;11.03;1.20;;;;;;;;;;5093180;28;20453;-57
2023/01/15 12:59:06;;;;;;;3.13;0.90;;;;;;;;;;5093497;28;20457;-56
2023/01/15 13:01:38;;;;;;;4.70;2.10;;;;;;;;;;5093278;28;20451;-55
2023/01/15 13:04:11;;;;;;;4.50;2.23;;;;;;;;;;5093230;28;20451;-57
2023/01/15 13:06:40;;;;;;;2.63;1.60;;;;;;;;;;5092825;28;21015;-57
2023/01/15 13:09:11;;;;;;;2.23;1.57;;;;;;;;;;5093008;28;20483;-56
2023/01/15 13:11:38;;;;;;;2.20;0.90;;;;;;;;;;5092872;28;20993;-57
2023/01/15 13:14:10;;;;;;;3.37;1.40;;;;;;;;;;5093039;28;20965;-56
2023/01/15 13:16:42;;;;;;;8.87;7.03;;;;;;;;;;5093127;28;20821;-56
2023/01/15 13:19:27;;;;;;;7.83;6.20;;;;;;;;;;5092925;28;20451;-56
2023/01/15 13:21:57;;;;;;;1.40;1.20;;;;;;;;;;5092799;28;20803;-56
2023/01/15 13:24:33;;;;;;;1.47;1.37;;;;;;;;;;5093071;28;20504;-57
2023/01/15 13:27:05;;;;;;;2.93;1.40;;;;;;;;;;5092871;28;20485;-55
2023/01/15 13:29:40;;;;;;;1.33;1.23;;;;;;;;;;5092960;28;20446;-56
2023/01/15 13:32:12;;;;;;;2.03;1.30;;;;;;;;;;5092961;28;20489;-58
2023/01/15 13:34:43;;;;;;;1.57;1.43;;;;;;;;;;5092807;28;20473;-57
2023/01/15 13:37:16;;;;;;;1.17;0.90;;;;;;;;;;5092922;28;20457;-52
2023/01/15 13:39:44;;;;;;;1.10;1.00;;;;;;;;;;5092926;28;20450;-56
2023/01/15 13:42:33;;;;;;;1.63;1.20;;;;;;;;;;5092754;28;20542;-57
2023/01/15 13:45:01;;;;;;;1.10;0.97;;;;;;;;;;5092572;28;20884;-56
2023/01/15 13:47:31;;;;;;;3.63;1.43;;;;;;;;;;5092828;28;20489;-52
2023/01/15 13:49:59;;;;;;;2.83;1.10;;;;;;;;;;5092664;28;20447;-56
2023/01/15 13:52:28;;;;;;;2.10;0.80;;;;;;;;;;5092492;28;20478;-56
2023/01/15 13:54:56;;;;;;;0.90;0.77;;;;;;;;;;5092429;28;20805;-54
2023/01/15 13:57:25;;;;;;;1.63;0.93;;;;;;;;;;5092734;28;20447;-51
2023/01/15 13:59:52;;;;;;;2.83;1.27;;;;;;;;;;5092815;28;20488;-56
2023/01/15 14:02:24;;;;;;;1.60;1.10;;;;;;;;;;5092748;28;20447;-55
2023/01/15 14:04:53;;;;;;;1.53;1.43;;;;;;;;;;5092495;28;20439;-56
2023/01/15 14:07:22;;;;;;;1.53;0.97;;;;;;;;;;5092444;28;20447;-54
2023/01/15 14:09:50;;;;;;;3.10;2.30;;;;;;;;;;5092660;28;20443;-54
2023/01/15 14:12:23;;;;;;;1.63;1.53;;;;;;;;;;5092519;28;20488;-56
2023/01/15 14:14:59;;;;;;;1.10;0.90;;;;;;;;;;5092552;28;20451;-56
2023/01/15 14:17:34;;;;;;;1.20;0.90;;;;;;;;;;5092519;28;20454;-50
2023/01/15 14:20:11;;;;;;;1.10;0.80;;;;;;;;;;5092683;28;20460;-52
2023/01/15 14:22:45;;;;;;;4.83;1.63;;;;;;;;;;5092521;28;20457;-54
2023/01/15 14:25:22;;;;;;;0.90;0.90;;;;;;;;;;5092434;28;20446;-55
2023/01/15 14:27:58;;;;;;;1.60;1.50;;;;;;;;;;5092352;28;20450;-54
2023/01/15 14:30:31;;;;;;;1.43;1.33;;;;;;;;;;5092296;28;20548;-57
2023/01/15 14:33:01;;;;;;;1.20;0.80;;;;;;;;;;5095635;28;20513;-56
2023/01/15 14:35:35;;;;;;;2.07;1.00;;;;;;;;;;5095920;28;20525;-57
2023/01/15 14:38:04;;;;;;;3.27;1.17;;;;;;;;;;5095883;28;20876;-55
2023/01/15 14:40:33;;;;;;;1.20;0.87;;;;;;;;;;5096194;28;20447;-54
2023/01/15 14:43:00;;;;;;;4.03;1.10;;;;;;;;;;5095785;28;20465;-51
2023/01/15 14:45:28;;;;;;;3.83;3.37;;;;;;;;;;5095509;28;20494;-51
2023/01/15 14:47:57;;;;;;;2.23;1.77;;;;;;;;;;5095753;28;20475;-52
2023/01/15 14:50:32;;;;;;;2.10;1.50;;;;;;;;;;5095715;28;21002;-53
2023/01/15 14:53:03;;;;;;;1.93;1.50;;;;;;;;;;5095496;28;20504;-55
2023/01/15 14:55:30;;;;;;;3.30;1.27;;;;;;;;;;5095706;28;20460;-49
2023/01/15 14:58:00;;;;;;;2.33;1.33;;;;;;;;;;5095574;28;20447;-54
2023/01/15 15:00:30;;;;;;;2.37;1.30;;;;;;;;;;5095483;28;20453;-51
2023/01/15 15:02:58;;;;;;;5.63;2.80;;;;;;;;;;5095420;28;20461;-52
2023/01/15 15:05:25;;;;;;;2.00;1.40;;;;;;;;;;5095304;28;20538;-50
2023/01/15 15:07:52;;;;;;;1.70;1.23;;;;;;;;;;5095612;28;20537;-55
2023/01/15 15:10:24;;;;;;;8.70;5.50;;;;;;;;;;5095365;28;20877;-55
2023/01/15 15:12:55;;;;;;;14.43;10.10;;;;;;;;;;5095236;28;20497;-56
2023/01/15 15:15:26;;;;;;;1.87;1.67;;;;;;;;;;5095330;28;20486;-55
2023/01/15 15:17:58;;;;;;;1.47;1.03;;;;;;;;;;5095036;28;20493;-56
2023/01/15 15:20:31;;;;;;;1.43;1.33;;;;;;;;;;5094974;28;20450;-56
2023/01/15 15:23:02;;;;;;;2.33;1.00;;;;;;;;;;5095084;28;20454;-57
2023/01/15 15:25:33;;;;;;;0.80;0.80;;;;;;;;;;5094847;28;20454;-56
2023/01/15 15:28:04;;;;;;;1.27;0.90;;;;;;;;;;5094790;28;21020;-57
2023/01/15 15:30:34;;;;;;;4.50;1.40;;;;;;;;;;5094555;28;20486;-56
2023/01/15 15:33:01;;;;;;;2.75;1.20;;;;;;;;;;5094640;28;20489;-56
2023/01/15 15:35:29;;;;;;;2.27;1.57;;;;;;;;;;5094728;28;20226;-56
2023/01/15 15:37:57;;;;;;;4.80;3.60;;;;;;;;;;5094489;28;20486;-56
2023/01/15 15:40:27;;;;;;;3.70;2.17;;;;;;;;;;5094465;28;20439;-54
2023/01/15 15:48:44;;;;;;;2.50;2.00;;;;;;;;;;5094376;28;20481;-55
2023/01/15 15:51:23;;;;;;;4.20;3.80;;;;;;;;;;5094160;28;20442;-55
2023/01/15 15:53:50;;;;;;;1.60;1.50;;;;;;;;;;5094411;28;20802;-56
2023/01/15 15:56:18;;;;;;;3.50;3.17;;;;;;;;;;5094223;28;21006;-57
2023/01/15 15:58:46;;;;;;;3.10;2.20;;;;;;;;;;5094232;28;20450;-54